Time;durP1;ratioP1;P1;durP2;ratioP2;P2;SDS_P1;SDS_P2;PMS_P1;PMS_P2;Temp;Humidity;BMP_temperature;BMP_pressure;BME280_temperature;BME280_humidity;BME280_pressure;Samples;Min_cycle;Max_cycle;Signal;HPM_P1;HPM_P2
2021/12/20 00:05:06;;;;;;;32.33;4.75;;;;;;;;;;5141523;28;20038;-61
2021/12/20 00:07:32;;;;;;;24.77;5.40;;;;;;;;;;5144712;28;20043;-61
2021/12/20 00:09:58;;;;;;;29.75;4.10;;;;;;;;;;5144072;28;20913;-60
2021/12/20 00:12:24;;;;;;;34.75;5.05;;;;;;;;;;5144767;28;20112;-61
2021/12/20 00:14:50;;;;;;;36.78;5.32;;;;;;;;;;5144085;28;20104;-61
2021/12/20 00:17:16;;;;;;;32.38;5.65;;;;;;;;;;5144591;28;20073;-60
2021/12/20 00:19:42;;;;;;;35.95;4.28;;;;;;;;;;5135544;28;20089;-61
2021/12/20 00:22:08;;;;;;;26.33;3.90;;;;;;;;;;5136000;28;20080;-62
2021/12/20 00:24:34;;;;;;;45.15;5.88;;;;;;;;;;5144272;28;20054;-60
2021/12/20 00:27:05;;;;;;;39.95;6.40;;;;;;;;;;5143626;28;20152;-61
2021/12/20 00:29:31;;;;;;;21.83;4.75;;;;;;;;;;5145613;28;20047;-61
2021/12/20 00:31:57;;;;;;;25.75;5.47;;;;;;;;;;5144833;28;20061;-61
2021/12/20 00:34:23;;;;;;;30.17;5.50;;;;;;;;;;5139397;28;20494;-60
2021/12/20 00:36:57;;;;;;;20.52;4.45;;;;;;;;;;5142250;28;20134;-60
2021/12/20 00:42:08;;;;;;;28.42;4.78;;;;;;;;;;5124625;28;20126;-61
2021/12/20 00:44:34;;;;;;;36.38;5.30;;;;;;;;;;5137673;28;20095;-61
2021/12/20 00:47:00;;;;;;;18.02;3.17;;;;;;;;;;5145167;28;20134;-60
2021/12/20 00:49:28;;;;;;;31.17;4.55;;;;;;;;;;5145064;28;20047;-60
2021/12/20 00:51:54;;;;;;;25.00;4.00;;;;;;;;;;5144353;28;20051;-62
2021/12/20 00:54:20;;;;;;;22.90;4.28;;;;;;;;;;5144475;27;20121;-60
2021/12/20 00:56:46;;;;;;;22.95;3.40;;;;;;;;;;5148623;27;20058;-61
2021/12/20 00:59:12;;;;;;;20.00;3.47;;;;;;;;;;5149199;27;20047;-61
2021/12/20 01:01:39;;;;;;;19.80;3.63;;;;;;;;;;5148836;27;20039;-62
2021/12/20 01:04:05;;;;;;;10.70;2.25;;;;;;;;;;5148631;27;20430;-61
2021/12/20 01:06:31;;;;;;;22.67;2.67;;;;;;;;;;5148067;27;20043;-61
2021/12/20 01:08:57;;;;;;;16.08;2.88;;;;;;;;;;5148347;27;20118;-61
2021/12/20 01:11:26;;;;;;;18.98;3.35;;;;;;;;;;5148550;27;20099;-60
2021/12/20 01:13:53;;;;;;;11.88;2.30;;;;;;;;;;5148415;27;20083;-60
2021/12/20 01:16:29;;;;;;;15.65;1.88;;;;;;;;;;5148305;27;20043;-60
2021/12/20 01:18:55;;;;;;;11.32;3.20;;;;;;;;;;5148229;27;20118;-60
2021/12/20 01:21:21;;;;;;;14.65;2.90;;;;;;;;;;5147545;27;20052;-60
2021/12/20 01:23:47;;;;;;;21.50;2.25;;;;;;;;;;5147969;27;20046;-61
2021/12/20 01:26:13;;;;;;;20.88;3.20;;;;;;;;;;5148274;27;20095;-62
2021/12/20 01:28:42;;;;;;;15.65;4.43;;;;;;;;;;5148314;27;20043;-61
2021/12/20 01:31:09;;;;;;;17.13;3.72;;;;;;;;;;5148154;27;20099;-61
2021/12/20 01:33:35;;;;;;;14.70;2.42;;;;;;;;;;5147880;27;20413;-62
2021/12/20 01:36:01;;;;;;;15.00;2.47;;;;;;;;;;5147625;27;20039;-61
2021/12/20 01:38:27;;;;;;;14.90;2.58;;;;;;;;;;5147602;27;20132;-61
2021/12/20 01:40:53;;;;;;;12.63;2.45;;;;;;;;;;5147611;27;20099;-60
2021/12/20 01:43:19;;;;;;;14.43;2.78;;;;;;;;;;5148467;27;20054;-61
2021/12/20 01:45:48;;;;;;;10.85;2.17;;;;;;;;;;5147842;27;20072;-61
2021/12/20 01:48:17;;;;;;;17.45;2.63;;;;;;;;;;5147272;27;20051;-62
2021/12/20 01:53:28;;;;;;;17.80;3.03;;;;;;;;;;5147711;27;20047;-60
2021/12/20 01:55:55;;;;;;;15.70;2.63;;;;;;;;;;5147781;27;20053;-61
2021/12/20 01:58:22;;;;;;;19.17;2.70;;;;;;;;;;5147583;27;20047;-62
2021/12/20 02:03:33;;;;;;;19.75;3.00;;;;;;;;;;5147579;27;20047;-61
2021/12/20 02:06:04;;;;;;;12.27;2.00;;;;;;;;;;5146960;27;20047;-61
2021/12/20 02:08:30;;;;;;;12.35;2.28;;;;;;;;;;5146673;27;20068;-62
2021/12/20 02:10:57;;;;;;;17.38;2.65;;;;;;;;;;5147401;27;20074;-61
2021/12/20 02:13:24;;;;;;;19.48;2.08;;;;;;;;;;5147111;27;20031;-61
2021/12/20 02:15:51;;;;;;;12.65;2.83;;;;;;;;;;5129090;27;20042;-60
2021/12/20 02:18:17;;;;;;;18.35;2.78;;;;;;;;;;5147189;27;20035;-61
2021/12/20 02:20:43;;;;;;;16.35;1.95;;;;;;;;;;5146406;27;20054;-60
2021/12/20 02:23:09;;;;;;;19.65;3.00;;;;;;;;;;5147071;27;20047;-62
2021/12/20 02:25:36;;;;;;;17.38;3.22;;;;;;;;;;5147104;27;20049;-61
2021/12/20 02:28:07;;;;;;;17.38;2.50;;;;;;;;;;5146924;27;20051;-61
2021/12/20 02:38:31;;;;;;;21.05;3.13;;;;;;;;;;5146406;27;20050;-61
2021/12/20 02:40:59;;;;;;;22.52;2.72;;;;;;;;;;5146620;27;20126;-61
2021/12/20 02:43:28;;;;;;;17.23;2.90;;;;;;;;;;5146823;27;20043;-61
2021/12/20 02:45:58;;;;;;;23.50;3.33;;;;;;;;;;5146485;27;20106;-61
2021/12/20 02:48:25;;;;;;;18.92;3.42;;;;;;;;;;5146522;27;20051;-61
2021/12/20 02:50:54;;;;;;;17.23;2.70;;;;;;;;;;5145952;27;20072;-61
2021/12/20 02:53:20;;;;;;;12.60;2.83;;;;;;;;;;5146184;27;20068;-61
2021/12/20 02:55:46;;;;;;;19.65;2.58;;;;;;;;;;5142821;27;20047;-61
2021/12/20 02:58:12;;;;;;;18.23;3.53;;;;;;;;;;5119379;27;20043;-60
2021/12/20 03:00:39;;;;;;;18.98;2.40;;;;;;;;;;5146336;27;20130;-60
2021/12/20 03:03:06;;;;;;;15.85;2.15;;;;;;;;;;5146456;27;20114;-61
2021/12/20 03:05:32;;;;;;;11.30;2.60;;;;;;;;;;5145718;27;20639;-61
2021/12/20 03:07:58;;;;;;;19.55;3.53;;;;;;;;;;5127123;27;20050;-61
2021/12/20 03:10:26;;;;;;;16.73;4.03;;;;;;;;;;5145737;27;20046;-61
2021/12/20 03:12:53;;;;;;;12.07;1.98;;;;;;;;;;5145940;27;20042;-61
2021/12/20 03:15:23;;;;;;;16.77;3.65;;;;;;;;;;5145997;27;20108;-61
2021/12/20 03:17:52;;;;;;;17.75;2.70;;;;;;;;;;5146338;27;20050;-60
2021/12/20 03:20:19;;;;;;;19.20;3.47;;;;;;;;;;5126369;27;20065;-61
2021/12/20 03:22:45;;;;;;;16.98;2.53;;;;;;;;;;5145641;27;20051;-62
2021/12/20 03:25:11;;;;;;;14.25;2.50;;;;;;;;;;5146075;27;20096;-61
2021/12/20 03:27:37;;;;;;;20.05;2.78;;;;;;;;;;5146068;27;20066;-60
2021/12/20 03:30:05;;;;;;;17.05;2.45;;;;;;;;;;5145898;27;20122;-61
2021/12/20 03:32:31;;;;;;;23.77;3.80;;;;;;;;;;5127464;27;20190;-60
2021/12/20 03:34:57;;;;;;;15.23;3.88;;;;;;;;;;5145833;27;20043;-61
2021/12/20 03:37:23;;;;;;;22.48;3.17;;;;;;;;;;5145225;27;20102;-61
2021/12/20 03:39:49;;;;;;;19.95;3.13;;;;;;;;;;5145601;27;20068;-61
2021/12/20 03:42:16;;;;;;;19.20;2.72;;;;;;;;;;5145454;27;20043;-62
2021/12/20 03:44:44;;;;;;;14.07;2.72;;;;;;;;;;5146130;27;20099;-61
2021/12/20 03:47:11;;;;;;;;;;;;;;;;;;5145720;27;20055;-60
2021/12/20 03:49:37;;;;;;;20.70;2.60;;;;;;;;;;5145610;27;20029;-61
2021/12/20 03:52:07;;;;;;;23.15;2.85;;;;;;;;;;5144616;27;20047;-61
2021/12/20 03:54:34;;;;;;;17.23;2.83;;;;;;;;;;5145432;27;20046;-61
2021/12/20 03:57:00;;;;;;;19.02;3.58;;;;;;;;;;5145519;27;20039;-61
2021/12/20 03:59:28;;;;;;;18.13;2.60;;;;;;;;;;5145970;27;20055;-61
2021/12/20 04:01:54;;;;;;;;;;;;;;;;;;5145543;27;20072;-61
2021/12/20 04:04:20;;;;;;;28.60;3.33;;;;;;;;;;5145600;28;19915;-60
2021/12/20 04:06:46;;;;;;;21.20;3.17;;;;;;;;;;5144725;28;20108;-61
2021/12/20 04:09:12;;;;;;;12.43;2.63;;;;;;;;;;5127123;28;20086;-60
2021/12/20 04:11:38;;;;;;;10.88;2.35;;;;;;;;;;5145088;28;20043;-61
2021/12/20 04:14:04;;;;;;;22.55;3.38;;;;;;;;;;5145748;28;20102;-60
2021/12/20 04:16:30;;;;;;;20.63;2.63;;;;;;;;;;5145386;28;20039;-62
2021/12/20 04:18:56;;;;;;;19.13;2.53;;;;;;;;;;5145267;28;20088;-61
2021/12/20 04:21:23;;;;;;;22.52;4.05;;;;;;;;;;5144416;28;20099;-61
2021/12/20 04:23:49;;;;;;;23.63;3.22;;;;;;;;;;5145187;28;20071;-61
2021/12/20 04:26:15;;;;;;;17.45;2.90;;;;;;;;;;5145195;28;20040;-61
2021/12/20 04:28:42;;;;;;;24.80;2.80;;;;;;;;;;5144977;28;20047;-60
2021/12/20 04:31:08;;;;;;;16.60;2.42;;;;;;;;;;5147961;27;20039;-61
2021/12/20 04:33:34;;;;;;;20.83;3.22;;;;;;;;;;5149286;27;20075;-61
2021/12/20 04:36:00;;;;;;;18.50;3.25;;;;;;;;;;5130434;27;20072;-60
2021/12/20 04:38:29;;;;;;;17.85;3.33;;;;;;;;;;5148798;27;20035;-61
2021/12/20 04:40:55;;;;;;;20.40;4.05;;;;;;;;;;5149286;27;20062;-61
2021/12/20 04:43:21;;;;;;;15.27;3.22;;;;;;;;;;5149404;27;20039;-61
2021/12/20 04:45:47;;;;;;;22.40;2.88;;;;;;;;;;5149087;27;20110;-61
2021/12/20 04:48:13;;;;;;;15.07;3.13;;;;;;;;;;5148545;27;20043;-61
2021/12/20 04:50:39;;;;;;;17.15;2.65;;;;;;;;;;5148284;27;20135;-61
2021/12/20 04:53:06;;;;;;;16.15;3.05;;;;;;;;;;5148764;27;20061;-62
2021/12/20 04:55:32;;;;;;;27.13;3.28;;;;;;;;;;5149089;27;20047;-60
2021/12/20 04:57:59;;;;;;;26.88;3.53;;;;;;;;;;5148511;27;20043;-60
2021/12/20 05:00:27;;;;;;;21.05;2.85;;;;;;;;;;5148774;27;20039;-61
2021/12/20 05:02:54;;;;;;;20.95;3.35;;;;;;;;;;5148634;27;20043;-60
2021/12/20 05:05:21;;;;;;;23.83;4.15;;;;;;;;;;5129870;27;20043;-60
2021/12/20 05:07:47;;;;;;;24.02;4.32;;;;;;;;;;5148704;27;20047;-61
2021/12/20 05:10:25;;;;;;;22.55;4.07;;;;;;;;;;5148757;27;20114;-61
2021/12/20 05:12:51;;;;;;;23.88;4.25;;;;;;;;;;5148737;27;20054;-61
2021/12/20 05:15:17;;;;;;;25.52;4.30;;;;;;;;;;5148471;27;20054;-61
2021/12/20 05:17:43;;;;;;;25.65;3.42;;;;;;;;;;5148138;27;20047;-60
2021/12/20 05:20:10;;;;;;;18.80;3.90;;;;;;;;;;5147292;27;20061;-60
2021/12/20 05:22:36;;;;;;;16.17;2.80;;;;;;;;;;5147899;27;20115;-61
2021/12/20 05:25:03;;;;;;;22.15;3.47;;;;;;;;;;5148645;27;20047;-60
2021/12/20 05:27:29;;;;;;;20.63;4.03;;;;;;;;;;5148222;27;20045;-61
2021/12/20 05:29:55;;;;;;;21.55;3.92;;;;;;;;;;5133049;27;20126;-61
2021/12/20 05:32:21;;;;;;;19.88;3.13;;;;;;;;;;5147700;27;20046;-60
2021/12/20 05:34:47;;;;;;;28.85;3.53;;;;;;;;;;5148277;27;20054;-60
2021/12/20 05:37:16;;;;;;;23.70;3.60;;;;;;;;;;5147777;27;20077;-61
2021/12/20 05:39:42;;;;;;;18.58;3.78;;;;;;;;;;5127213;28;20107;-61
2021/12/20 05:42:08;;;;;;;32.63;3.33;;;;;;;;;;5126027;28;20125;-61
2021/12/20 05:44:35;;;;;;;24.95;3.97;;;;;;;;;;5127425;28;20035;-60
2021/12/20 05:47:01;;;;;;;18.35;3.50;;;;;;;;;;5127104;28;20162;-61
2021/12/20 05:49:27;;;;;;;18.42;3.03;;;;;;;;;;5146388;27;20054;-60
2021/12/20 05:51:53;;;;;;;11.40;2.65;;;;;;;;;;5147696;27;20119;-60
2021/12/20 05:54:19;;;;;;;27.63;4.80;;;;;;;;;;5147547;27;20114;-60
2021/12/20 05:56:46;;;;;;;27.38;4.53;;;;;;;;;;5147833;27;20057;-60
2021/12/20 05:59:12;;;;;;;21.55;3.20;;;;;;;;;;5147412;27;20047;-60
2021/12/20 06:01:38;;;;;;;18.65;3.58;;;;;;;;;;5147407;27;20054;-60
2021/12/20 06:04:04;;;;;;;21.08;3.58;;;;;;;;;;5147834;27;20039;-60
2021/12/20 06:06:32;;;;;;;24.55;4.28;;;;;;;;;;5146979;27;20051;-60
2021/12/20 06:08:58;;;;;;;24.20;3.90;;;;;;;;;;5147266;27;20102;-60
2021/12/20 06:11:24;;;;;;;25.02;5.07;;;;;;;;;;5147290;27;20035;-61
2021/12/20 06:13:51;;;;;;;26.35;4.28;;;;;;;;;;5147475;27;20043;-60
2021/12/20 06:16:17;;;;;;;26.50;4.20;;;;;;;;;;5146763;27;20047;-60
2021/12/20 06:18:44;;;;;;;26.35;5.25;;;;;;;;;;5147964;27;20043;-60
2021/12/20 06:21:10;;;;;;;28.17;5.53;;;;;;;;;;5127993;27;20050;-61
2021/12/20 06:23:36;;;;;;;21.20;4.50;;;;;;;;;;5128654;27;20035;-61
2021/12/20 06:26:02;;;;;;;38.33;5.25;;;;;;;;;;5146761;27;20043;-61
2021/12/20 06:28:29;;;;;;;21.05;3.92;;;;;;;;;;5147142;27;20035;-61
2021/12/20 06:30:55;;;;;;;43.22;5.15;;;;;;;;;;5146922;27;20051;-61
2021/12/20 06:33:21;;;;;;;25.88;4.72;;;;;;;;;;5147286;27;20074;-61
2021/12/20 06:35:47;;;;;;;21.02;5.50;;;;;;;;;;5146033;27;20043;-61
2021/12/20 06:38:19;;;;;;;33.17;4.82;;;;;;;;;;5144516;27;20047;-61
2021/12/20 06:40:46;;;;;;;28.73;4.53;;;;;;;;;;5146404;27;20046;-60
2021/12/20 06:43:12;;;;;;;23.80;5.30;;;;;;;;;;5147091;27;20133;-60
2021/12/20 06:45:38;;;;;;;23.75;5.25;;;;;;;;;;5143936;27;20103;-60
2021/12/20 06:48:05;;;;;;;29.23;5.55;;;;;;;;;;5134436;27;20537;-60
2021/12/20 06:50:31;;;;;;;46.95;6.13;;;;;;;;;;5144973;27;20461;-61
2021/12/20 06:52:58;;;;;;;28.42;5.00;;;;;;;;;;5145865;27;20043;-60
2021/12/20 06:55:24;;;;;;;25.45;5.07;;;;;;;;;;5145662;27;20051;-61
2021/12/20 06:57:51;;;;;;;23.67;5.13;;;;;;;;;;5144697;27;20035;-61
2021/12/20 07:00:17;;;;;;;34.72;5.10;;;;;;;;;;5125817;27;20106;-60
2021/12/20 07:02:43;;;;;;;30.25;5.78;;;;;;;;;;5145268;27;20078;-61
2021/12/20 07:05:09;;;;;;;33.10;5.63;;;;;;;;;;5144554;27;20055;-60
2021/12/20 07:07:36;;;;;;;27.88;6.38;;;;;;;;;;5143984;27;20062;-61
2021/12/20 07:10:05;;;;;;;32.30;5.57;;;;;;;;;;5142921;27;20120;-60
2021/12/20 07:12:34;;;;;;;45.13;6.97;;;;;;;;;;5145440;27;20219;-59
2021/12/20 07:15:00;;;;;;;34.30;6.32;;;;;;;;;;5145975;27;20046;-61
2021/12/20 07:17:26;;;;;;;35.97;7.20;;;;;;;;;;5144834;27;20104;-60
2021/12/20 07:19:53;;;;;;;40.08;5.93;;;;;;;;;;5144847;27;20135;-60
2021/12/20 07:22:19;;;;;;;38.53;7.28;;;;;;;;;;5142042;27;20042;-60
2021/12/20 07:24:45;;;;;;;38.40;6.13;;;;;;;;;;5143486;27;20038;-61
2021/12/20 07:27:11;;;;;;;34.00;6.40;;;;;;;;;;5145835;27;20095;-61
2021/12/20 07:29:38;;;;;;;30.35;7.80;;;;;;;;;;5146033;27;20063;-60
2021/12/20 07:32:05;;;;;;;34.35;7.10;;;;;;;;;;5145377;27;20066;-60
2021/12/20 07:34:31;;;;;;;27.50;7.38;;;;;;;;;;5145769;27;20130;-60
2021/12/20 07:36:57;;;;;;;24.90;6.93;;;;;;;;;;5145103;27;20096;-60
2021/12/20 07:39:23;;;;;;;32.92;6.30;;;;;;;;;;5126514;27;20050;-60
2021/12/20 07:41:51;;;;;;;29.50;5.97;;;;;;;;;;5145061;27;20054;-61
2021/12/20 07:44:17;;;;;;;;;;;;;;;;;;5146318;27;20039;-61
2021/12/20 07:46:43;;;;;;;38.40;7.57;;;;;;;;;;5145176;27;19949;-61
2021/12/20 07:49:09;;;;;;;42.50;7.47;;;;;;;;;;5145182;27;20059;-61
2021/12/20 07:51:36;;;;;;;35.33;6.72;;;;;;;;;;5144297;27;20465;-60
2021/12/20 07:54:02;;;;;;;39.47;7.35;;;;;;;;;;5145391;27;20043;-60
2021/12/20 07:56:28;;;;;;;40.42;9.07;;;;;;;;;;5144652;27;20118;-60
2021/12/20 07:58:54;;;;;;;37.95;7.70;;;;;;;;;;5143708;27;20039;-60
2021/12/20 08:01:20;;;;;;;40.15;7.40;;;;;;;;;;5129446;28;20051;-60
2021/12/20 08:03:46;;;;;;;24.25;7.55;;;;;;;;;;5144196;27;20379;-60
2021/12/20 08:06:13;;;;;;;31.73;7.50;;;;;;;;;;5143718;28;20042;-60
2021/12/20 08:08:40;;;;;;;37.53;8.85;;;;;;;;;;5145287;28;20074;-60
2021/12/20 08:11:07;;;;;;;35.83;8.73;;;;;;;;;;5145420;28;20054;-60
2021/12/20 08:13:33;;;;;;;32.75;8.20;;;;;;;;;;5145377;28;20039;-60
2021/12/20 08:15:59;;;;;;;32.50;8.77;;;;;;;;;;5142802;28;20096;-60
2021/12/20 08:18:25;;;;;;;33.88;8.32;;;;;;;;;;5135938;28;20080;-61
2021/12/20 08:20:51;;;;;;;36.10;8.70;;;;;;;;;;5144437;28;20058;-61
2021/12/20 08:23:18;;;;;;;36.58;9.50;;;;;;;;;;5141556;28;20095;-61
2021/12/20 08:25:44;;;;;;;49.83;12.05;;;;;;;;;;5142810;28;20125;-61
2021/12/20 08:28:11;;;;;;;49.05;11.30;;;;;;;;;;5141374;28;20062;-61
2021/12/20 08:30:37;;;;;;;39.83;9.85;;;;;;;;;;5135845;28;20586;-61
2021/12/20 08:33:05;;;;;;;34.72;9.90;;;;;;;;;;5122229;28;20988;-60
2021/12/20 08:35:31;;;;;;;32.03;8.18;;;;;;;;;;5135576;28;20051;-60
2021/12/20 08:37:58;;;;;;;44.80;9.18;;;;;;;;;;5132932;28;20039;-65
2021/12/20 08:40:25;;;;;;;38.60;9.02;;;;;;;;;;5142425;28;20064;-62
2021/12/20 08:42:51;;;;;;;40.80;10.77;;;;;;;;;;5142859;28;20039;-62
2021/12/20 08:45:18;;;;;;;37.65;9.23;;;;;;;;;;5138995;28;20492;-60
2021/12/20 08:47:44;;;;;;;43.95;10.07;;;;;;;;;;5138598;27;20119;-60
2021/12/20 08:50:12;;;;;;;35.20;8.95;;;;;;;;;;5140964;28;20124;-66
2021/12/20 08:52:38;;;;;;;39.53;10.05;;;;;;;;;;5141666;28;20036;-68
2021/12/20 08:55:14;;;;;;;44.10;9.88;;;;;;;;;;5140902;28;20047;-67
2021/12/20 08:57:41;;;;;;;38.95;9.38;;;;;;;;;;5135344;28;20073;-68
2021/12/20 09:00:09;;;;;;;25.60;9.57;;;;;;;;;;5142312;28;20126;-66
2021/12/20 09:02:36;;;;;;;43.60;10.15;;;;;;;;;;5142863;28;20047;-69
2021/12/20 09:05:02;;;;;;;32.85;8.98;;;;;;;;;;5142247;28;20447;-59
2021/12/20 09:07:28;;;;;;;41.38;12.10;;;;;;;;;;5138223;28;20142;-60
2021/12/20 09:09:54;;;;;;;27.08;9.05;;;;;;;;;;5141958;28;20081;-59
2021/12/20 09:12:21;;;;;;;42.55;9.95;;;;;;;;;;5137685;28;20072;-58
2021/12/20 09:14:48;;;;;;;35.92;9.43;;;;;;;;;;5142411;28;20055;-59
2021/12/20 09:17:15;;;;;;;31.98;9.07;;;;;;;;;;5143479;27;20061;-59
2021/12/20 09:19:41;;;;;;;47.05;10.77;;;;;;;;;;5145090;27;20057;-58
2021/12/20 09:22:10;;;;;;;35.80;10.77;;;;;;;;;;5144732;27;20108;-58
2021/12/20 09:24:36;;;;;;;40.95;8.60;;;;;;;;;;5127515;27;20058;-59
2021/12/20 09:27:03;;;;;;;36.13;8.95;;;;;;;;;;5145557;27;20518;-59
2021/12/20 09:29:30;;;;;;;35.60;9.77;;;;;;;;;;5140414;27;20043;-58
2021/12/20 09:31:57;;;;;;;38.38;9.88;;;;;;;;;;5143022;27;20496;-59
2021/12/20 09:34:23;;;;;;;51.42;9.40;;;;;;;;;;5144334;27;20050;-59
2021/12/20 09:36:50;;;;;;;38.72;10.60;;;;;;;;;;5147305;27;20051;-59
2021/12/20 09:39:17;;;;;;;39.70;10.52;;;;;;;;;;5143805;27;20047;-60
2021/12/20 09:44:10;;;;;;;41.38;11.75;;;;;;;;;;5145552;27;20092;-59
2021/12/20 09:46:37;;;;;;;51.20;11.70;;;;;;;;;;5144509;27;20585;-60
2021/12/20 09:49:04;;;;;;;47.03;9.30;;;;;;;;;;5140723;27;20050;-59
2021/12/20 09:51:31;;;;;;;44.80;8.83;;;;;;;;;;5138858;27;20047;-59
2021/12/20 09:53:57;;;;;;;36.63;8.25;;;;;;;;;;5144998;27;20127;-58
2021/12/20 09:56:24;;;;;;;47.78;9.10;;;;;;;;;;5143280;27;20047;-59
2021/12/20 09:58:52;;;;;;;42.67;9.45;;;;;;;;;;5142648;27;20087;-59
2021/12/20 10:01:19;;;;;;;43.47;9.68;;;;;;;;;;5140334;27;20168;-64
2021/12/20 10:03:45;;;;;;;45.05;8.98;;;;;;;;;;5142958;27;20110;-65
2021/12/20 10:06:11;;;;;;;37.40;8.50;;;;;;;;;;5141435;27;20169;-64
2021/12/20 10:08:48;;;;;;;36.25;7.38;;;;;;;;;;5138663;27;20502;-65
2021/12/20 10:11:22;;;;;;;39.58;8.23;;;;;;;;;;5144756;27;20077;-64
2021/12/20 10:13:49;;;;;;;29.73;6.70;;;;;;;;;;5141586;27;20054;-65
2021/12/20 10:16:22;;;;;;;33.17;7.68;;;;;;;;;;5126641;27;20059;-68
2021/12/20 10:18:49;;;;;;;30.92;6.97;;;;;;;;;;5144112;27;20288;-68
2021/12/20 10:21:16;;;;;;;40.78;8.10;;;;;;;;;;5137359;27;20042;-69
2021/12/20 10:23:44;;;;;;;35.27;6.50;;;;;;;;;;5142337;27;20047;-69
2021/12/20 10:26:11;;;;;;;;;;;;;;;;;;5142774;27;20055;-69
2021/12/20 10:28:38;;;;;;;32.70;6.45;;;;;;;;;;5144165;27;19974;-68
2021/12/20 10:31:15;;;;;;;36.78;6.35;;;;;;;;;;5140346;27;20035;-62
2021/12/20 10:33:50;;;;;;;33.45;5.25;;;;;;;;;;5141030;27;20055;-63
2021/12/20 10:36:16;;;;;;;34.40;6.68;;;;;;;;;;5143390;27;20055;-62
2021/12/20 10:38:47;;;;;;;26.75;5.60;;;;;;;;;;5143270;27;20043;-63
2021/12/20 10:41:18;;;;;;;37.47;7.75;;;;;;;;;;5142219;27;20043;-62
2021/12/20 10:43:54;;;;;;;35.08;5.43;;;;;;;;;;5140912;27;20118;-63
2021/12/20 10:46:26;;;;;;;24.58;5.05;;;;;;;;;;5143438;27;20058;-63
2021/12/20 10:48:59;;;;;;;27.85;6.20;;;;;;;;;;5143662;27;20101;-59
2021/12/20 10:51:27;;;;;;;25.33;4.65;;;;;;;;;;5141299;27;20137;-63
2021/12/20 10:54:00;;;;;;;35.10;6.00;;;;;;;;;;5122995;27;20074;-59
2021/12/20 10:56:28;;;;;;;28.40;5.80;;;;;;;;;;5143168;27;20074;-59
2021/12/20 10:58:55;;;;;;;18.75;4.80;;;;;;;;;;5144172;27;20032;-59
2021/12/20 11:01:33;;;;;;;31.35;5.15;;;;;;;;;;5137546;27;20035;-65
2021/12/20 11:04:02;;;;;;;24.02;3.97;;;;;;;;;;5141319;27;20039;-63
2021/12/20 11:09:18;;;;;;;30.88;6.75;;;;;;;;;;5143461;27;20047;-61
2021/12/20 11:11:55;;;;;;;30.83;6.13;;;;;;;;;;5139000;27;20237;-61
2021/12/20 11:14:23;;;;;;;28.92;5.35;;;;;;;;;;5142736;27;20035;-63
2021/12/20 11:16:54;;;;;;;24.75;4.82;;;;;;;;;;5138495;27;20123;-62
2021/12/20 11:19:20;;;;;;;21.80;4.50;;;;;;;;;;5141042;27;20039;-64
2021/12/20 11:21:58;;;;;;;21.65;5.20;;;;;;;;;;5142276;27;20054;-65
2021/12/20 11:24:34;;;;;;;20.42;4.57;;;;;;;;;;5142308;27;20046;-62
2021/12/20 11:27:02;;;;;;;19.20;4.57;;;;;;;;;;5142263;27;20035;-66
2021/12/20 11:29:28;;;;;;;23.10;4.97;;;;;;;;;;5141912;27;20074;-62
2021/12/20 11:31:55;;;;;;;20.88;4.45;;;;;;;;;;5142397;27;20039;-62
2021/12/20 11:34:21;;;;;;;15.68;3.85;;;;;;;;;;5137412;27;20530;-61
2021/12/20 11:36:47;;;;;;;21.33;2.53;;;;;;;;;;5141432;27;20103;-62
2021/12/20 11:39:13;;;;;;;16.27;3.10;;;;;;;;;;5141218;27;20039;-62
2021/12/20 11:41:40;;;;;;;19.23;3.53;;;;;;;;;;5135476;27;20046;-59
2021/12/20 11:44:07;;;;;;;9.75;2.75;;;;;;;;;;5143610;27;20066;-60
2021/12/20 11:46:46;;;;;;;10.65;3.03;;;;;;;;;;5120205;27;20062;-60
2021/12/20 11:49:12;;;;;;;;;;;;;;;;;;5098565;28;20075;-60
2021/12/20 11:51:55;;;;;;;16.70;2.90;;;;;;;;;;5097593;28;19960;-60
2021/12/20 11:54:51;;;;;;;11.65;2.78;;;;;;;;;;5099458;28;20066;-64
2021/12/20 11:57:32;;;;;;;16.85;3.13;;;;;;;;;;5090444;28;20058;-62
2021/12/20 11:59:59;;;;;;;11.85;2.88;;;;;;;;;;5097412;28;20047;-65
2021/12/20 12:02:27;;;;;;;11.85;3.30;;;;;;;;;;5091577;28;20644;-64
2021/12/20 12:04:58;;;;;;;10.55;2.30;;;;;;;;;;5096560;28;20644;-63
2021/12/20 12:07:25;;;;;;;10.13;2.58;;;;;;;;;;5098982;28;20108;-62
2021/12/20 12:09:56;;;;;;;14.20;2.83;;;;;;;;;;5100908;28;20134;-64
2021/12/20 12:12:23;;;;;;;12.55;2.35;;;;;;;;;;5100767;28;20173;-64
2021/12/20 12:15:10;;;;;;;13.40;2.88;;;;;;;;;;5100814;28;20055;-67
2021/12/20 12:17:49;;;;;;;16.33;3.03;;;;;;;;;;5097326;28;20041;-70
2021/12/20 12:20:35;;;;;;;10.30;2.63;;;;;;;;;;5099913;28;20100;-67
2021/12/20 12:23:12;;;;;;;4.65;1.60;;;;;;;;;;5101023;28;20059;-60
2021/12/20 12:25:44;;;;;;;8.60;2.05;;;;;;;;;;5098276;28;20087;-59
2021/12/20 12:28:10;;;;;;;11.73;2.45;;;;;;;;;;5101003;28;20052;-59
2021/12/20 12:30:37;;;;;;;8.32;1.80;;;;;;;;;;5100538;28;20044;-65
2021/12/20 12:33:03;;;;;;;5.55;1.65;;;;;;;;;;5099380;28;20133;-64
2021/12/20 12:35:42;;;;;;;10.30;2.40;;;;;;;;;;5100953;28;20048;-60
2021/12/20 12:38:17;;;;;;;8.15;2.17;;;;;;;;;;5093644;28;20100;-62
2021/12/20 12:40:46;;;;;;;8.55;1.60;;;;;;;;;;5096816;28;20052;-62
2021/12/20 12:43:14;;;;;;;9.10;2.28;;;;;;;;;;5100986;28;20123;-62
2021/12/20 12:45:50;;;;;;;6.78;2.15;;;;;;;;;;5101227;28;20052;-62
2021/12/20 12:48:36;;;;;;;8.48;1.80;;;;;;;;;;5128422;28;20055;-61
2021/12/20 12:51:21;;;;;;;10.18;2.30;;;;;;;;;;5142379;27;20125;-62
2021/12/20 12:53:52;;;;;;;4.05;1.17;;;;;;;;;;5145468;27;20047;-62
2021/12/20 12:56:25;;;;;;;6.32;1.30;;;;;;;;;;5139435;27;20112;-62
2021/12/20 12:59:10;;;;;;;5.90;2.17;;;;;;;;;;5141295;27;20075;-62
2021/12/20 13:01:38;;;;;;;5.38;1.30;;;;;;;;;;5147982;27;20064;-62
2021/12/20 13:04:04;;;;;;;9.15;1.80;;;;;;;;;;5146388;27;20031;-62
2021/12/20 13:06:30;;;;;;;4.90;1.23;;;;;;;;;;5140099;27;20112;-62
2021/12/20 13:08:59;;;;;;;5.07;2.00;;;;;;;;;;5144819;27;20031;-61
2021/12/20 13:11:26;;;;;;;4.55;1.45;;;;;;;;;;5144795;27;20043;-62
2021/12/20 13:14:15;;;;;;;10.18;1.42;;;;;;;;;;5146828;27;20043;-61
2021/12/20 13:16:52;;;;;;;5.07;1.92;;;;;;;;;;5126053;27;20406;-61
2021/12/20 13:19:28;;;;;;;3.28;1.30;;;;;;;;;;5142613;27;20082;-72
2021/12/20 13:21:59;;;;;;;4.78;1.65;;;;;;;;;;5126899;27;20133;-62
2021/12/20 13:24:27;;;;;;;3.42;1.13;;;;;;;;;;5146479;27;20552;-64
2021/12/20 13:27:02;;;;;;;6.00;1.40;;;;;;;;;;5142744;27;20075;-64
2021/12/20 13:29:29;;;;;;;8.82;2.22;;;;;;;;;;5140545;27;20090;-66
2021/12/20 13:32:03;;;;;;;16.38;2.30;;;;;;;;;;5144535;27;20051;-61
2021/12/20 13:34:30;;;;;;;6.13;1.23;;;;;;;;;;5126906;27;20459;-65
2021/12/20 13:36:57;;;;;;;9.82;1.52;;;;;;;;;;5147055;27;20070;-65
2021/12/20 13:39:24;;;;;;;5.75;1.33;;;;;;;;;;5145940;27;20042;-66
2021/12/20 13:41:50;;;;;;;6.05;1.33;;;;;;;;;;5146550;27;20124;-64
2021/12/20 13:44:20;;;;;;;7.68;2.17;;;;;;;;;;5145301;27;20047;-67
2021/12/20 13:46:49;;;;;;;7.85;1.63;;;;;;;;;;5143889;27;20039;-67
2021/12/20 13:49:21;;;;;;;6.47;1.75;;;;;;;;;;5139202;27;20062;-66
2021/12/20 13:51:50;;;;;;;6.93;1.65;;;;;;;;;;5137720;27;20058;-67
2021/12/20 13:54:27;;;;;;;10.40;1.95;;;;;;;;;;5140738;27;20113;-67
2021/12/20 13:57:14;;;;;;;9.15;2.00;;;;;;;;;;5143462;27;20064;-62
2021/12/20 13:59:41;;;;;;;6.38;1.80;;;;;;;;;;5142390;27;20047;-61
2021/12/20 14:02:11;;;;;;;7.30;2.45;;;;;;;;;;5142305;27;20494;-61
2021/12/20 14:04:41;;;;;;;7.57;2.10;;;;;;;;;;5142532;27;20058;-63
2021/12/20 14:07:26;;;;;;;3.55;1.48;;;;;;;;;;5142751;27;20050;-64
2021/12/20 14:10:01;;;;;;;6.68;1.38;;;;;;;;;;5144182;27;20071;-61
2021/12/20 14:12:33;;;;;;;7.97;1.90;;;;;;;;;;5145109;27;20039;-62
2021/12/20 14:15:02;;;;;;;5.78;1.23;;;;;;;;;;5140810;27;20044;-60
2021/12/20 14:17:28;;;;;;;6.75;1.60;;;;;;;;;;5142567;27;20123;-57
2021/12/20 14:19:59;;;;;;;7.95;1.45;;;;;;;;;;5141160;27;20047;-62
2021/12/20 14:22:26;;;;;;;8.10;1.50;;;;;;;;;;5143642;27;20050;-60
2021/12/20 14:25:19;;;;;;;6.38;1.25;;;;;;;;;;5143808;27;20050;-59
2021/12/20 14:27:58;;;;;;;3.97;1.02;;;;;;;;;;5137280;27;20055;-59
2021/12/20 14:30:24;;;;;;;5.60;1.58;;;;;;;;;;5143515;27;20451;-63
2021/12/20 14:32:51;;;;;;;4.50;1.33;;;;;;;;;;5144490;27;20065;-62
2021/12/20 14:35:30;;;;;;;6.00;1.40;;;;;;;;;;5141189;27;20127;-62
2021/12/20 14:37:58;;;;;;;11.57;2.13;;;;;;;;;;5142676;27;20039;-63
2021/12/20 14:40:42;;;;;;;8.30;2.65;;;;;;;;;;5142149;27;20065;-63
2021/12/20 14:43:12;;;;;;;9.30;3.05;;;;;;;;;;5142218;27;20061;-63
2021/12/20 14:45:38;;;;;;;11.80;2.58;;;;;;;;;;5142020;27;20039;-62
2021/12/20 14:48:14;;;;;;;16.17;2.40;;;;;;;;;;5142787;27;20050;-61
2021/12/20 14:50:48;;;;;;;10.52;1.73;;;;;;;;;;5137866;27;20043;-68
2021/12/20 14:53:24;;;;;;;7.10;1.67;;;;;;;;;;5142677;27;20566;-68
2021/12/20 14:55:50;;;;;;;5.80;1.85;;;;;;;;;;5143320;27;20130;-68
2021/12/20 14:58:16;;;;;;;10.05;3.08;;;;;;;;;;5143501;27;20067;-66
2021/12/20 15:00:46;;;;;;;8.32;2.65;;;;;;;;;;5140303;27;20057;-64
2021/12/20 15:03:14;;;;;;;18.40;4.35;;;;;;;;;;5143352;27;20051;-63
2021/12/20 15:05:41;;;;;;;19.48;5.10;;;;;;;;;;5144354;27;20051;-63